Meteo Giornale » Osservazioni meteo Italia » Capo Bellavista

ore: 00:55 - Osservazioni Meteo Capo Bellavista
Lat. 39° 56' N Lon. 9° 43' E Alt. 138 metri s.l.m.

sereno Europe/Rome

11 °C

Sereno

Temp. 24 Ore

10 °C

16 °C

Nord-Ovest

16.7 Km/h

Dew point 9 °C

Umidità 87 %

Visibilità  10 Km

Il sole sorge alle ore 07:02

Il sole tramonta alle ore 18:06

Data e Ora Cielo e Fenomeni T °C DP °C Um. % Pres. hPa Vis. km Vento km/h
Oggi h: 00:55 sereno Sereno 11 9 87 1028 10 NO 16.7
Ieri h: 23:55 sereno Sereno 11 9 87 1028 10 N/NO 14.8
Ieri h: 22:55 sereno Sereno 16 15 93 1028 10 NO 14.8
Ieri h: 21:55 sereno Sereno 12 11 93 1028 10 NE 9.3
Ieri h: 20:55 sereno Sereno 12 11 93 1028 10 NE 7.4
Ieri h: 19:55 molto_nuvoloso Molto Nuvoloso 13 11 87 1028 10 E/SE 7.4
Ieri h: 18:55 molto_nuvoloso Molto Nuvoloso 13 11 87 1028 10 N 5.5
Ieri h: 17:55 molto_nuvoloso Molto Nuvoloso 13 11 87 1027 10 SE 7.4
Ieri h: 16:55 molto_nuvoloso Molto Nuvoloso 14 10 76 1027 10 SE 9.3
Ieri h: 15:55 molto_nuvoloso Molto Nuvoloso 15 11 76 1027 10 E 14.8
Ieri h: 14:55 nuvoloso Nuvoloso 15 11 76 1027 10 E 18.5
Ieri h: 12:55 sereno Sereno 15 11 76 1028 10 E 20.3
Ieri h: 10:55 sereno Sereno 15 10 72 1028 10 E 24
Ieri h: 09:55 sereno Sereno 15 10 72 1027 10 E 13
Ieri h: 08:55 sereno Sereno 11 4 61 1027 10 NO 14.8
Ieri h: 07:55 sereno Sereno 10 4 66 1026 10 NO 18.5
Ieri h: 06:55 sereno Sereno 10 5 71 1026 10 NO 22.2
Ieri h: 05:55 sereno Sereno 10 5 71 1026 10 NO 20.3
Ieri h: 04:55 sereno Sereno 10 5 71 1026 10 NO 18.5
Ieri h: 03:55 sereno Sereno 10 6 76 1026 10 N/NO 20.3
Ieri h: 02:55 sereno Sereno 10 6 76 1025 10 N/NO 18.5
Ieri h: 01:55 sereno Sereno 10 7 81 1025 10 N/NE 20.3
Ieri h: 00:55 sereno Sereno 10 8 87 1025 10 NO 22.2